sensor_id;sensor_type;location;lat;lon;timestamp;P1;durP1;ratioP1;P2;durP2;ratioP2
69837;SDS011;57135;51.992;4.476;2023-05-10T00:00:10;36.56;;;34.72;;
69837;SDS011;57135;51.992;4.476;2023-05-10T00:02:36;36.20;;;34.60;;
69837;SDS011;57135;51.992;4.476;2023-05-10T00:05:01;37.86;;;36.38;;
69837;SDS011;57135;51.992;4.476;2023-05-10T00:07:27;38.24;;;36.70;;
69837;SDS011;57135;51.992;4.476;2023-05-10T00:09:52;37.46;;;35.86;;
69837;SDS011;57135;51.992;4.476;2023-05-10T00:12:18;39.36;;;37.31;;
69837;SDS011;57135;51.992;4.476;2023-05-10T00:14:43;38.69;;;37.03;;
69837;SDS011;57135;51.992;4.476;2023-05-10T00:17:09;37.94;;;36.55;;
69837;SDS011;57135;51.992;4.476;2023-05-10T00:19:34;38.70;;;37.08;;
69837;SDS011;57135;51.992;4.476;2023-05-10T00:22:00;39.16;;;37.96;;
69837;SDS011;57135;51.992;4.476;2023-05-10T00:24:25;39.88;;;38.27;;
69837;SDS011;57135;51.992;4.476;2023-05-10T00:26:51;38.48;;;36.91;;
69837;SDS011;57135;51.992;4.476;2023-05-10T00:29:16;39.13;;;37.51;;
69837;SDS011;57135;51.992;4.476;2023-05-10T00:31:42;38.87;;;37.44;;
69837;SDS011;57135;51.992;4.476;2023-05-10T00:34:07;39.25;;;37.62;;
69837;SDS011;57135;51.992;4.476;2023-05-10T00:36:32;39.52;;;37.60;;
69837;SDS011;57135;51.992;4.476;2023-05-10T00:38:58;39.23;;;37.49;;
69837;SDS011;57135;51.992;4.476;2023-05-10T00:41:23;37.27;;;35.39;;
69837;SDS011;57135;51.992;4.476;2023-05-10T00:43:49;38.77;;;35.67;;
69837;SDS011;57135;51.992;4.476;2023-05-10T00:46:15;39.57;;;36.67;;
69837;SDS011;57135;51.992;4.476;2023-05-10T00:48:41;41.48;;;38.13;;
69837;SDS011;57135;51.992;4.476;2023-05-10T00:51:08;43.63;;;40.10;;
69837;SDS011;57135;51.992;4.476;2023-05-10T00:53:33;45.55;;;41.80;;
69837;SDS011;57135;51.992;4.476;2023-05-10T00:55:59;43.28;;;40.71;;
69837;SDS011;57135;51.992;4.476;2023-05-10T00:58:25;41.38;;;38.55;;
69837;SDS011;57135;51.992;4.476;2023-05-10T01:00:54;42.75;;;39.93;;
69837;SDS011;57135;51.992;4.476;2023-05-10T01:03:22;45.76;;;41.57;;
69837;SDS011;57135;51.992;4.476;2023-05-10T01:05:47;46.16;;;41.91;;
69837;SDS011;57135;51.992;4.476;2023-05-10T01:08:13;46.06;;;41.02;;
69837;SDS011;57135;51.992;4.476;2023-05-10T01:10:38;45.11;;;40.23;;
69837;SDS011;57135;51.992;4.476;2023-05-10T01:13:04;47.23;;;41.75;;
69837;SDS011;57135;51.992;4.476;2023-05-10T01:15:29;47.53;;;42.00;;
69837;SDS011;57135;51.992;4.476;2023-05-10T01:17:56;49.02;;;42.90;;
69837;SDS011;57135;51.992;4.476;2023-05-10T01:20:21;50.06;;;43.97;;
69837;SDS011;57135;51.992;4.476;2023-05-10T01:28:33;51.21;;;44.29;;
69837;SDS011;57135;51.992;4.476;2023-05-10T01:31:18;49.72;;;43.92;;
69837;SDS011;57135;51.992;4.476;2023-05-10T01:34:09;49.93;;;43.73;;
69837;SDS011;57135;51.992;4.476;2023-05-10T01:36:45;52.12;;;45.58;;
69837;SDS011;57135;51.992;4.476;2023-05-10T01:39:24;51.88;;;45.18;;
69837;SDS011;57135;51.992;4.476;2023-05-10T01:44:46;44.59;;;40.32;;
69837;SDS011;57135;51.992;4.476;2023-05-10T01:47:17;46.57;;;41.75;;
69837;SDS011;57135;51.992;4.476;2023-05-10T01:49:54;45.34;;;40.81;;
69837;SDS011;57135;51.992;4.476;2023-05-10T01:52:30;47.48;;;42.06;;
69837;SDS011;57135;51.992;4.476;2023-05-10T01:55:00;44.89;;;40.48;;
69837;SDS011;57135;51.992;4.476;2023-05-10T01:57:32;42.94;;;38.75;;
69837;SDS011;57135;51.992;4.476;2023-05-10T02:00:03;40.77;;;36.90;;
69837;SDS011;57135;51.992;4.476;2023-05-10T02:02:30;39.32;;;35.63;;
69837;SDS011;57135;51.992;4.476;2023-05-10T02:04:59;34.25;;;31.89;;
69837;SDS011;57135;51.992;4.476;2023-05-10T02:07:26;32.52;;;30.43;;
69837;SDS011;57135;51.992;4.476;2023-05-10T02:09:53;31.48;;;29.37;;
69837;SDS011;57135;51.992;4.476;2023-05-10T02:12:20;31.71;;;29.81;;
69837;SDS011;57135;51.992;4.476;2023-05-10T02:14:48;32.02;;;30.11;;
69837;SDS011;57135;51.992;4.476;2023-05-10T02:17:16;32.48;;;30.64;;
69837;SDS011;57135;51.992;4.476;2023-05-10T02:19:43;33.73;;;31.51;;
69837;SDS011;57135;51.992;4.476;2023-05-10T02:22:10;32.76;;;31.38;;
69837;SDS011;57135;51.992;4.476;2023-05-10T02:24:37;33.33;;;31.61;;
69837;SDS011;57135;51.992;4.476;2023-05-10T02:27:03;33.42;;;31.97;;
69837;SDS011;57135;51.992;4.476;2023-05-10T02:29:30;33.22;;;31.92;;
69837;SDS011;57135;51.992;4.476;2023-05-10T02:31:57;34.72;;;32.97;;
69837;SDS011;57135;51.992;4.476;2023-05-10T02:34:27;36.59;;;34.54;;
69837;SDS011;57135;51.992;4.476;2023-05-10T02:36:53;36.89;;;34.46;;
69837;SDS011;57135;51.992;4.476;2023-05-10T02:39:21;37.09;;;35.08;;
69837;SDS011;57135;51.992;4.476;2023-05-10T02:41:48;38.91;;;36.49;;
69837;SDS011;57135;51.992;4.476;2023-05-10T02:44:15;37.39;;;35.34;;
69837;SDS011;57135;51.992;4.476;2023-05-10T02:46:43;38.02;;;35.88;;
69837;SDS011;57135;51.992;4.476;2023-05-10T02:49:10;38.63;;;36.45;;
69837;SDS011;57135;51.992;4.476;2023-05-10T02:51:36;39.02;;;36.77;;
69837;SDS011;57135;51.992;4.476;2023-05-10T02:54:10;38.11;;;35.91;;
69837;SDS011;57135;51.992;4.476;2023-05-10T02:56:40;36.91;;;35.11;;
69837;SDS011;57135;51.992;4.476;2023-05-10T02:59:08;38.67;;;36.24;;
69837;SDS011;57135;51.992;4.476;2023-05-10T03:01:34;39.40;;;37.05;;
69837;SDS011;57135;51.992;4.476;2023-05-10T03:03:59;39.44;;;37.35;;
69837;SDS011;57135;51.992;4.476;2023-05-10T03:06:25;37.90;;;36.35;;
69837;SDS011;57135;51.992;4.476;2023-05-10T03:08:50;37.63;;;35.86;;
69837;SDS011;57135;51.992;4.476;2023-05-10T03:14:03;34.88;;;33.45;;
69837;SDS011;57135;51.992;4.476;2023-05-10T03:16:38;31.75;;;30.74;;
69837;SDS011;57135;51.992;4.476;2023-05-10T03:19:19;33.64;;;32.36;;
69837;SDS011;57135;51.992;4.476;2023-05-10T03:21:53;34.37;;;33.15;;
69837;SDS011;57135;51.992;4.476;2023-05-10T03:24:21;34.56;;;33.61;;
69837;SDS011;57135;51.992;4.476;2023-05-10T03:26:48;35.26;;;34.04;;
69837;SDS011;57135;51.992;4.476;2023-05-10T03:29:15;39.80;;;38.55;;
69837;SDS011;57135;51.992;4.476;2023-05-10T03:31:42;40.81;;;39.25;;
69837;SDS011;57135;51.992;4.476;2023-05-10T03:34:07;41.33;;;39.93;;
69837;SDS011;57135;51.992;4.476;2023-05-10T03:39:02;42.79;;;41.14;;
69837;SDS011;57135;51.992;4.476;2023-05-10T03:41:28;42.10;;;40.89;;
69837;SDS011;57135;51.992;4.476;2023-05-10T03:43:54;42.00;;;40.77;;
69837;SDS011;57135;51.992;4.476;2023-05-10T03:46:19;46.92;;;45.22;;
69837;SDS011;57135;51.992;4.476;2023-05-10T03:48:45;46.29;;;44.71;;
69837;SDS011;57135;51.992;4.476;2023-05-10T03:51:10;45.74;;;44.13;;
69837;SDS011;57135;51.992;4.476;2023-05-10T03:53:36;46.07;;;44.20;;
69837;SDS011;57135;51.992;4.476;2023-05-10T03:56:01;45.27;;;43.58;;
69837;SDS011;57135;51.992;4.476;2023-05-10T03:58:27;43.21;;;41.53;;
69837;SDS011;57135;51.992;4.476;2023-05-10T04:00:52;41.91;;;40.11;;
69837;SDS011;57135;51.992;4.476;2023-05-10T04:03:18;42.57;;;40.68;;
69837;SDS011;57135;51.992;4.476;2023-05-10T04:05:45;44.11;;;41.54;;
69837;SDS011;57135;51.992;4.476;2023-05-10T04:08:10;42.42;;;40.46;;
69837;SDS011;57135;51.992;4.476;2023-05-10T04:10:36;39.69;;;38.05;;
69837;SDS011;57135;51.992;4.476;2023-05-10T04:13:01;40.34;;;38.42;;
69837;SDS011;57135;51.992;4.476;2023-05-10T04:15:27;40.78;;;38.97;;
69837;SDS011;57135;51.992;4.476;2023-05-10T04:17:52;41.73;;;39.76;;
69837;SDS011;57135;51.992;4.476;2023-05-10T04:20:18;37.84;;;36.05;;
69837;SDS011;57135;51.992;4.476;2023-05-10T04:22:44;34.62;;;32.59;;
69837;SDS011;57135;51.992;4.476;2023-05-10T04:25:09;33.55;;;31.55;;
69837;SDS011;57135;51.992;4.476;2023-05-10T04:27:35;33.23;;;30.77;;
69837;SDS011;57135;51.992;4.476;2023-05-10T04:30:00;34.20;;;31.64;;
69837;SDS011;57135;51.992;4.476;2023-05-10T04:32:26;36.28;;;33.72;;
69837;SDS011;57135;51.992;4.476;2023-05-10T04:34:51;37.09;;;32.98;;
69837;SDS011;57135;51.992;4.476;2023-05-10T04:37:18;38.03;;;33.14;;
69837;SDS011;57135;51.992;4.476;2023-05-10T04:39:43;36.12;;;31.27;;
69837;SDS011;57135;51.992;4.476;2023-05-10T04:42:09;29.95;;;26.39;;
69837;SDS011;57135;51.992;4.476;2023-05-10T04:44:34;29.71;;;25.62;;
69837;SDS011;57135;51.992;4.476;2023-05-10T04:47:01;28.84;;;24.89;;
69837;SDS011;57135;51.992;4.476;2023-05-10T04:49:27;28.54;;;24.84;;
69837;SDS011;57135;51.992;4.476;2023-05-10T04:51:53;28.21;;;24.41;;
69837;SDS011;57135;51.992;4.476;2023-05-10T04:54:18;24.44;;;21.26;;
69837;SDS011;57135;51.992;4.476;2023-05-10T04:56:44;20.22;;;18.41;;
69837;SDS011;57135;51.992;4.476;2023-05-10T04:59:09;19.54;;;18.15;;
69837;SDS011;57135;51.992;4.476;2023-05-10T05:01:35;16.25;;;15.15;;
69837;SDS011;57135;51.992;4.476;2023-05-10T05:04:01;14.81;;;14.03;;
69837;SDS011;57135;51.992;4.476;2023-05-10T05:06:26;10.81;;;10.28;;
69837;SDS011;57135;51.992;4.476;2023-05-10T05:08:52;9.92;;;9.69;;
69837;SDS011;57135;51.992;4.476;2023-05-10T05:11:18;8.24;;;8.07;;
69837;SDS011;57135;51.992;4.476;2023-05-10T05:13:43;6.56;;;6.44;;
69837;SDS011;57135;51.992;4.476;2023-05-10T05:16:09;6.62;;;6.46;;
69837;SDS011;57135;51.992;4.476;2023-05-10T05:18:35;6.29;;;6.14;;
69837;SDS011;57135;51.992;4.476;2023-05-10T05:21:01;6.63;;;6.55;;
69837;SDS011;57135;51.992;4.476;2023-05-10T05:23:39;6.11;;;6.04;;
69837;SDS011;57135;51.992;4.476;2023-05-10T05:26:05;6.56;;;6.49;;
69837;SDS011;57135;51.992;4.476;2023-05-10T05:28:30;6.75;;;6.74;;
69837;SDS011;57135;51.992;4.476;2023-05-10T05:30:59;6.18;;;6.18;;
69837;SDS011;57135;51.992;4.476;2023-05-10T05:33:25;6.10;;;6.09;;
69837;SDS011;57135;51.992;4.476;2023-05-10T05:35:50;6.33;;;6.29;;
69837;SDS011;57135;51.992;4.476;2023-05-10T05:38:16;6.14;;;6.06;;
69837;SDS011;57135;51.992;4.476;2023-05-10T05:40:42;5.95;;;5.87;;
69837;SDS011;57135;51.992;4.476;2023-05-10T05:43:07;6.31;;;6.25;;
69837;SDS011;57135;51.992;4.476;2023-05-10T05:45:33;6.68;;;6.52;;
69837;SDS011;57135;51.992;4.476;2023-05-10T05:47:58;6.65;;;6.57;;
69837;SDS011;57135;51.992;4.476;2023-05-10T05:50:24;7.59;;;7.33;;
69837;SDS011;57135;51.992;4.476;2023-05-10T05:52:49;7.75;;;7.60;;
69837;SDS011;57135;51.992;4.476;2023-05-10T05:55:15;7.92;;;7.70;;
69837;SDS011;57135;51.992;4.476;2023-05-10T05:57:40;8.62;;;8.34;;
69837;SDS011;57135;51.992;4.476;2023-05-10T06:00:06;8.46;;;8.27;;
69837;SDS011;57135;51.992;4.476;2023-05-10T06:02:32;8.92;;;8.52;;
69837;SDS011;57135;51.992;4.476;2023-05-10T06:04:57;9.36;;;9.01;;
69837;SDS011;57135;51.992;4.476;2023-05-10T06:07:23;9.87;;;9.31;;
69837;SDS011;57135;51.992;4.476;2023-05-10T06:09:48;9.93;;;9.48;;
69837;SDS011;57135;51.992;4.476;2023-05-10T06:12:14;9.85;;;9.54;;
69837;SDS011;57135;51.992;4.476;2023-05-10T06:14:39;10.85;;;10.42;;
69837;SDS011;57135;51.992;4.476;2023-05-10T06:17:05;10.37;;;10.08;;
69837;SDS011;57135;51.992;4.476;2023-05-10T06:19:31;9.95;;;9.71;;
69837;SDS011;57135;51.992;4.476;2023-05-10T06:21:57;9.58;;;9.35;;
69837;SDS011;57135;51.992;4.476;2023-05-10T06:24:22;9.70;;;9.42;;
69837;SDS011;57135;51.992;4.476;2023-05-10T06:26:48;10.16;;;9.83;;
69837;SDS011;57135;51.992;4.476;2023-05-10T06:29:15;9.28;;;9.05;;
69837;SDS011;57135;51.992;4.476;2023-05-10T06:31:40;9.59;;;9.29;;
69837;SDS011;57135;51.992;4.476;2023-05-10T06:34:06;9.38;;;9.06;;
69837;SDS011;57135;51.992;4.476;2023-05-10T06:36:33;9.11;;;8.74;;
69837;SDS011;57135;51.992;4.476;2023-05-10T06:38:58;8.79;;;8.53;;
69837;SDS011;57135;51.992;4.476;2023-05-10T06:41:24;8.85;;;8.60;;
69837;SDS011;57135;51.992;4.476;2023-05-10T06:43:49;8.96;;;8.75;;
69837;SDS011;57135;51.992;4.476;2023-05-10T06:46:15;9.05;;;8.95;;
69837;SDS011;57135;51.992;4.476;2023-05-10T06:48:41;9.50;;;9.31;;
69837;SDS011;57135;51.992;4.476;2023-05-10T06:51:06;10.13;;;9.83;;
69837;SDS011;57135;51.992;4.476;2023-05-10T06:53:32;9.71;;;9.46;;
69837;SDS011;57135;51.992;4.476;2023-05-10T06:55:57;8.95;;;8.74;;
69837;SDS011;57135;51.992;4.476;2023-05-10T06:58:23;9.54;;;9.23;;
69837;SDS011;57135;51.992;4.476;2023-05-10T07:00:48;9.25;;;9.08;;
69837;SDS011;57135;51.992;4.476;2023-05-10T07:03:14;9.35;;;9.17;;
69837;SDS011;57135;51.992;4.476;2023-05-10T07:05:39;9.54;;;9.33;;
69837;SDS011;57135;51.992;4.476;2023-05-10T07:08:05;8.81;;;8.61;;
69837;SDS011;57135;51.992;4.476;2023-05-10T07:10:30;9.21;;;9.04;;
69837;SDS011;57135;51.992;4.476;2023-05-10T07:12:56;9.73;;;9.57;;
69837;SDS011;57135;51.992;4.476;2023-05-10T07:15:21;10.57;;;10.32;;
69837;SDS011;57135;51.992;4.476;2023-05-10T07:17:47;10.59;;;10.26;;
69837;SDS011;57135;51.992;4.476;2023-05-10T07:20:12;10.67;;;10.28;;
69837;SDS011;57135;51.992;4.476;2023-05-10T07:22:37;10.90;;;10.65;;
69837;SDS011;57135;51.992;4.476;2023-05-10T07:25:03;10.72;;;10.50;;
69837;SDS011;57135;51.992;4.476;2023-05-10T07:27:29;10.96;;;10.81;;
69837;SDS011;57135;51.992;4.476;2023-05-10T07:29:55;11.18;;;10.85;;
69837;SDS011;57135;51.992;4.476;2023-05-10T07:32:21;10.94;;;10.73;;
69837;SDS011;57135;51.992;4.476;2023-05-10T07:34:47;10.47;;;10.12;;
69837;SDS011;57135;51.992;4.476;2023-05-10T07:37:12;10.83;;;10.50;;
69837;SDS011;57135;51.992;4.476;2023-05-10T07:39:38;11.39;;;11.16;;
69837;SDS011;57135;51.992;4.476;2023-05-10T07:42:03;10.79;;;10.63;;
69837;SDS011;57135;51.992;4.476;2023-05-10T07:44:29;11.05;;;10.86;;
69837;SDS011;57135;51.992;4.476;2023-05-10T07:46:54;10.08;;;9.98;;
69837;SDS011;57135;51.992;4.476;2023-05-10T07:49:20;10.17;;;10.11;;
69837;SDS011;57135;51.992;4.476;2023-05-10T07:51:46;10.30;;;10.15;;
69837;SDS011;57135;51.992;4.476;2023-05-10T07:54:11;9.91;;;9.75;;
69837;SDS011;57135;51.992;4.476;2023-05-10T07:56:37;9.45;;;9.31;;
69837;SDS011;57135;51.992;4.476;2023-05-10T07:59:04;9.45;;;9.33;;
69837;SDS011;57135;51.992;4.476;2023-05-10T08:01:32;9.79;;;9.74;;
69837;SDS011;57135;51.992;4.476;2023-05-10T08:03:59;9.29;;;9.14;;
69837;SDS011;57135;51.992;4.476;2023-05-10T08:06:25;9.73;;;9.58;;
69837;SDS011;57135;51.992;4.476;2023-05-10T08:08:55;9.17;;;9.07;;
69837;SDS011;57135;51.992;4.476;2023-05-10T08:11:21;8.73;;;8.62;;
69837;SDS011;57135;51.992;4.476;2023-05-10T08:13:47;9.17;;;9.07;;
69837;SDS011;57135;51.992;4.476;2023-05-10T08:16:14;9.37;;;9.36;;
69837;SDS011;57135;51.992;4.476;2023-05-10T08:18:40;9.81;;;9.66;;
69837;SDS011;57135;51.992;4.476;2023-05-10T08:21:06;9.40;;;9.29;;
69837;SDS011;57135;51.992;4.476;2023-05-10T08:23:31;8.90;;;8.80;;
69837;SDS011;57135;51.992;4.476;2023-05-10T08:25:57;9.12;;;9.00;;
69837;SDS011;57135;51.992;4.476;2023-05-10T08:28:22;8.88;;;8.78;;
69837;SDS011;57135;51.992;4.476;2023-05-10T08:30:49;9.11;;;9.07;;
69837;SDS011;57135;51.992;4.476;2023-05-10T08:33:15;8.44;;;8.38;;
69837;SDS011;57135;51.992;4.476;2023-05-10T08:35:40;8.24;;;8.13;;
69837;SDS011;57135;51.992;4.476;2023-05-10T08:38:06;8.86;;;8.73;;
69837;SDS011;57135;51.992;4.476;2023-05-10T08:40:31;8.23;;;8.12;;
69837;SDS011;57135;51.992;4.476;2023-05-10T08:43:07;7.79;;;7.70;;
69837;SDS011;57135;51.992;4.476;2023-05-10T08:45:36;7.82;;;7.78;;
69837;SDS011;57135;51.992;4.476;2023-05-10T08:48:07;8.07;;;7.96;;
69837;SDS011;57135;51.992;4.476;2023-05-10T08:50:35;9.23;;;9.15;;
69837;SDS011;57135;51.992;4.476;2023-05-10T08:53:04;8.40;;;8.36;;
69837;SDS011;57135;51.992;4.476;2023-05-10T08:55:34;8.13;;;8.04;;
69837;SDS011;57135;51.992;4.476;2023-05-10T08:58:01;7.08;;;6.99;;
69837;SDS011;57135;51.992;4.476;2023-05-10T09:00:27;6.52;;;6.28;;
69837;SDS011;57135;51.992;4.476;2023-05-10T09:02:53;6.94;;;6.89;;
69837;SDS011;57135;51.992;4.476;2023-05-10T09:05:18;6.63;;;6.56;;
69837;SDS011;57135;51.992;4.476;2023-05-10T09:07:56;6.79;;;6.73;;
69837;SDS011;57135;51.992;4.476;2023-05-10T09:10:21;7.07;;;6.99;;
69837;SDS011;57135;51.992;4.476;2023-05-10T09:12:50;7.81;;;7.63;;
69837;SDS011;57135;51.992;4.476;2023-05-10T09:15:17;8.18;;;7.88;;
69837;SDS011;57135;51.992;4.476;2023-05-10T09:17:45;7.10;;;6.91;;
69837;SDS011;57135;51.992;4.476;2023-05-10T09:20:11;6.61;;;6.46;;
69837;SDS011;57135;51.992;4.476;2023-05-10T09:22:36;6.50;;;6.33;;
69837;SDS011;57135;51.992;4.476;2023-05-10T09:25:06;7.47;;;7.26;;
69837;SDS011;57135;51.992;4.476;2023-05-10T09:27:33;8.17;;;7.96;;
69837;SDS011;57135;51.992;4.476;2023-05-10T09:29:59;9.26;;;9.07;;
69837;SDS011;57135;51.992;4.476;2023-05-10T09:32:38;9.40;;;9.19;;
69837;SDS011;57135;51.992;4.476;2023-05-10T09:37:33;9.59;;;9.43;;
69837;SDS011;57135;51.992;4.476;2023-05-10T09:39:58;9.77;;;9.55;;
69837;SDS011;57135;51.992;4.476;2023-05-10T09:42:24;10.08;;;9.88;;
69837;SDS011;57135;51.992;4.476;2023-05-10T09:44:50;10.07;;;9.89;;
69837;SDS011;57135;51.992;4.476;2023-05-10T09:47:18;10.68;;;10.43;;
69837;SDS011;57135;51.992;4.476;2023-05-10T09:49:49;10.00;;;9.83;;
69837;SDS011;57135;51.992;4.476;2023-05-10T09:52:15;10.34;;;10.16;;
69837;SDS011;57135;51.992;4.476;2023-05-10T09:54:44;9.52;;;9.31;;
69837;SDS011;57135;51.992;4.476;2023-05-10T09:57:21;9.42;;;9.23;;
69837;SDS011;57135;51.992;4.476;2023-05-10T09:59:48;8.68;;;8.63;;
69837;SDS011;57135;51.992;4.476;2023-05-10T10:02:14;9.24;;;9.07;;
69837;SDS011;57135;51.992;4.476;2023-05-10T10:04:40;8.85;;;8.74;;
69837;SDS011;57135;51.992;4.476;2023-05-10T10:07:06;8.49;;;8.42;;
69837;SDS011;57135;51.992;4.476;2023-05-10T10:09:32;8.12;;;7.99;;
69837;SDS011;57135;51.992;4.476;2023-05-10T10:12:02;6.94;;;6.86;;
69837;SDS011;57135;51.992;4.476;2023-05-10T10:14:29;7.09;;;7.00;;
69837;SDS011;57135;51.992;4.476;2023-05-10T10:16:54;7.40;;;7.37;;
69837;SDS011;57135;51.992;4.476;2023-05-10T10:19:21;8.76;;;8.73;;
69837;SDS011;57135;51.992;4.476;2023-05-10T10:21:47;8.76;;;8.72;;
69837;SDS011;57135;51.992;4.476;2023-05-10T10:24:14;9.58;;;9.43;;
69837;SDS011;57135;51.992;4.476;2023-05-10T10:26:40;9.01;;;8.86;;
69837;SDS011;57135;51.992;4.476;2023-05-10T10:29:11;9.39;;;9.20;;
69837;SDS011;57135;51.992;4.476;2023-05-10T10:34:27;9.98;;;9.71;;
69837;SDS011;57135;51.992;4.476;2023-05-10T10:36:54;10.21;;;10.02;;
69837;SDS011;57135;51.992;4.476;2023-05-10T10:39:21;9.76;;;9.59;;
69837;SDS011;57135;51.992;4.476;2023-05-10T10:41:55;9.93;;;9.70;;
69837;SDS011;57135;51.992;4.476;2023-05-10T10:44:23;10.79;;;10.50;;
69837;SDS011;57135;51.992;4.476;2023-05-10T10:47:09;10.70;;;10.44;;
69837;SDS011;57135;51.992;4.476;2023-05-10T10:57:56;8.35;;;8.35;;
69837;SDS011;57135;51.992;4.476;2023-05-10T11:00:31;9.25;;;9.25;;
69837;SDS011;57135;51.992;4.476;2023-05-10T11:03:04;9.87;;;9.87;;
69837;SDS011;57135;51.992;4.476;2023-05-10T11:05:44;9.88;;;9.87;;
69837;SDS011;57135;51.992;4.476;2023-05-10T11:10:37;9.62;;;9.62;;
69837;SDS011;57135;51.992;4.476;2023-05-10T11:13:04;9.90;;;9.88;;
69837;SDS011;57135;51.992;4.476;2023-05-10T11:15:32;9.57;;;9.57;;
69837;SDS011;57135;51.992;4.476;2023-05-10T11:18:17;9.75;;;9.74;;
69837;SDS011;57135;51.992;4.476;2023-05-10T11:20:44;10.25;;;10.25;;
69837;SDS011;57135;51.992;4.476;2023-05-10T11:23:16;10.31;;;10.30;;
69837;SDS011;57135;51.992;4.476;2023-05-10T11:25:43;9.78;;;9.77;;
69837;SDS011;57135;51.992;4.476;2023-05-10T11:28:09;9.20;;;9.17;;
69837;SDS011;57135;51.992;4.476;2023-05-10T11:30:39;8.31;;;8.31;;
69837;SDS011;57135;51.992;4.476;2023-05-10T11:33:06;7.77;;;7.68;;
69837;SDS011;57135;51.992;4.476;2023-05-10T11:35:36;7.73;;;7.57;;
69837;SDS011;57135;51.992;4.476;2023-05-10T11:38:08;7.84;;;7.72;;
69837;SDS011;57135;51.992;4.476;2023-05-10T11:40:35;7.77;;;7.61;;
69837;SDS011;57135;51.992;4.476;2023-05-10T11:43:03;7.20;;;7.17;;
69837;SDS011;57135;51.992;4.476;2023-05-10T11:45:32;7.84;;;7.79;;
69837;SDS011;57135;51.992;4.476;2023-05-10T11:47:58;7.97;;;7.90;;
69837;SDS011;57135;51.992;4.476;2023-05-10T11:50:27;8.25;;;8.19;;
69837;SDS011;57135;51.992;4.476;2023-05-10T11:52:53;8.93;;;8.79;;
69837;SDS011;57135;51.992;4.476;2023-05-10T11:55:20;9.56;;;9.43;;
69837;SDS011;57135;51.992;4.476;2023-05-10T11:57:46;9.33;;;9.11;;
69837;SDS011;57135;51.992;4.476;2023-05-10T12:00:12;8.69;;;8.63;;
69837;SDS011;57135;51.992;4.476;2023-05-10T12:02:38;9.00;;;8.93;;
69837;SDS011;57135;51.992;4.476;2023-05-10T12:05:04;9.35;;;9.17;;
69837;SDS011;57135;51.992;4.476;2023-05-10T12:07:30;9.58;;;9.41;;
69837;SDS011;57135;51.992;4.476;2023-05-10T12:10:29;10.16;;;10.05;;
69837;SDS011;57135;51.992;4.476;2023-05-10T12:12:51;9.49;;;9.27;;
69837;SDS011;57135;51.992;4.476;2023-05-10T12:15:18;9.12;;;8.98;;
69837;SDS011;57135;51.992;4.476;2023-05-10T12:17:46;9.48;;;9.34;;
69837;SDS011;57135;51.992;4.476;2023-05-10T12:20:16;9.84;;;9.67;;
69837;SDS011;57135;51.992;4.476;2023-05-10T12:22:46;9.06;;;9.01;;
69837;SDS011;57135;51.992;4.476;2023-05-10T12:25:14;8.75;;;8.66;;
69837;SDS011;57135;51.992;4.476;2023-05-10T12:27:40;7.70;;;7.66;;
69837;SDS011;57135;51.992;4.476;2023-05-10T12:30:06;7.82;;;7.81;;
69837;SDS011;57135;51.992;4.476;2023-05-10T12:32:41;8.72;;;8.58;;
69837;SDS011;57135;51.992;4.476;2023-05-10T12:35:08;8.34;;;8.23;;
69837;SDS011;57135;51.992;4.476;2023-05-10T12:37:34;9.47;;;9.31;;
69837;SDS011;57135;51.992;4.476;2023-05-10T12:40:05;9.49;;;9.38;;
69837;SDS011;57135;51.992;4.476;2023-05-10T12:42:31;9.09;;;8.95;;
69837;SDS011;57135;51.992;4.476;2023-05-10T12:44:57;8.66;;;8.60;;
69837;SDS011;57135;51.992;4.476;2023-05-10T12:47:22;8.75;;;8.70;;
69837;SDS011;57135;51.992;4.476;2023-05-10T12:49:48;8.90;;;8.71;;
69837;SDS011;57135;51.992;4.476;2023-05-10T12:52:13;8.52;;;8.42;;
69837;SDS011;57135;51.992;4.476;2023-05-10T12:54:39;8.09;;;7.98;;
69837;SDS011;57135;51.992;4.476;2023-05-10T12:57:04;7.52;;;7.44;;
69837;SDS011;57135;51.992;4.476;2023-05-10T12:59:30;6.98;;;6.95;;
69837;SDS011;57135;51.992;4.476;2023-05-10T13:01:56;6.28;;;6.25;;
69837;SDS011;57135;51.992;4.476;2023-05-10T13:04:22;6.61;;;6.56;;
69837;SDS011;57135;51.992;4.476;2023-05-10T13:06:47;6.62;;;6.58;;
69837;SDS011;57135;51.992;4.476;2023-05-10T13:09:13;6.24;;;6.18;;
69837;SDS011;57135;51.992;4.476;2023-05-10T13:11:38;6.37;;;6.33;;
69837;SDS011;57135;51.992;4.476;2023-05-10T13:14:04;6.46;;;6.36;;
69837;SDS011;57135;51.992;4.476;2023-05-10T13:16:30;6.20;;;6.18;;
69837;SDS011;57135;51.992;4.476;2023-05-10T13:18:56;6.16;;;6.11;;
69837;SDS011;57135;51.992;4.476;2023-05-10T13:21:21;5.90;;;5.87;;
69837;SDS011;57135;51.992;4.476;2023-05-10T13:23:47;6.51;;;6.50;;
69837;SDS011;57135;51.992;4.476;2023-05-10T13:26:12;6.56;;;6.52;;
69837;SDS011;57135;51.992;4.476;2023-05-10T13:28:38;6.87;;;6.81;;
69837;SDS011;57135;51.992;4.476;2023-05-10T13:31:04;6.61;;;6.56;;
69837;SDS011;57135;51.992;4.476;2023-05-10T13:33:30;6.97;;;6.85;;
69837;SDS011;57135;51.992;4.476;2023-05-10T13:35:55;7.19;;;7.08;;
69837;SDS011;57135;51.992;4.476;2023-05-10T13:38:20;7.34;;;7.28;;
69837;SDS011;57135;51.992;4.476;2023-05-10T13:40:46;7.57;;;7.55;;
69837;SDS011;57135;51.992;4.476;2023-05-10T13:43:11;7.49;;;7.49;;
69837;SDS011;57135;51.992;4.476;2023-05-10T13:45:37;7.80;;;7.70;;
69837;SDS011;57135;51.992;4.476;2023-05-10T13:48:02;7.77;;;7.69;;
69837;SDS011;57135;51.992;4.476;2023-05-10T13:50:28;7.38;;;7.29;;
69837;SDS011;57135;51.992;4.476;2023-05-10T13:56:14;6.83;;;6.76;;
69837;SDS011;57135;51.992;4.476;2023-05-10T13:58:40;6.40;;;6.40;;
69837;SDS011;57135;51.992;4.476;2023-05-10T14:01:06;7.00;;;6.94;;
69837;SDS011;57135;51.992;4.476;2023-05-10T14:03:31;7.04;;;6.94;;
69837;SDS011;57135;51.992;4.476;2023-05-10T14:05:57;7.01;;;6.91;;
69837;SDS011;57135;51.992;4.476;2023-05-10T14:08:23;7.03;;;7.00;;
69837;SDS011;57135;51.992;4.476;2023-05-10T14:10:48;6.82;;;6.75;;
69837;SDS011;57135;51.992;4.476;2023-05-10T14:13:14;6.97;;;6.95;;
69837;SDS011;57135;51.992;4.476;2023-05-10T14:15:40;7.58;;;7.55;;
69837;SDS011;57135;51.992;4.476;2023-05-10T14:18:06;7.99;;;7.88;;
69837;SDS011;57135;51.992;4.476;2023-05-10T14:20:31;8.60;;;8.38;;
69837;SDS011;57135;51.992;4.476;2023-05-10T14:22:58;8.37;;;8.22;;
69837;SDS011;57135;51.992;4.476;2023-05-10T14:25:24;8.59;;;8.54;;
69837;SDS011;57135;51.992;4.476;2023-05-10T14:27:50;9.03;;;8.91;;
69837;SDS011;57135;51.992;4.476;2023-05-10T14:30:16;8.68;;;8.53;;
69837;SDS011;57135;51.992;4.476;2023-05-10T14:32:41;8.26;;;8.11;;
69837;SDS011;57135;51.992;4.476;2023-05-10T14:35:07;8.45;;;8.31;;
69837;SDS011;57135;51.992;4.476;2023-05-10T14:37:33;9.01;;;8.80;;
69837;SDS011;57135;51.992;4.476;2023-05-10T14:39:58;8.31;;;8.16;;
69837;SDS011;57135;51.992;4.476;2023-05-10T14:42:24;7.83;;;7.61;;
69837;SDS011;57135;51.992;4.476;2023-05-10T14:44:49;7.24;;;7.04;;
69837;SDS011;57135;51.992;4.476;2023-05-10T14:47:15;7.26;;;7.11;;
69837;SDS011;57135;51.992;4.476;2023-05-10T14:49:40;7.72;;;7.52;;
69837;SDS011;57135;51.992;4.476;2023-05-10T14:52:06;7.73;;;7.52;;
69837;SDS011;57135;51.992;4.476;2023-05-10T14:54:31;7.43;;;7.19;;
69837;SDS011;57135;51.992;4.476;2023-05-10T14:56:58;7.68;;;7.43;;
69837;SDS011;57135;51.992;4.476;2023-05-10T14:59:25;6.98;;;6.80;;
69837;SDS011;57135;51.992;4.476;2023-05-10T15:01:50;7.15;;;7.02;;
69837;SDS011;57135;51.992;4.476;2023-05-10T15:04:16;7.36;;;7.18;;
69837;SDS011;57135;51.992;4.476;2023-05-10T15:06:41;7.73;;;7.64;;